Redondo Beach, Washington
Current Conditions -  °F | °C
As of 10:53 PM on Thursday 30 Oct 2014 (Local Time) from KSEA Reporting Station
Light Rain Light Rain  
Wind Chill: 54°   Ceiling: 3600
Heat Index: 54°   Visibility: 10mi
Dew Point: 52°   Wind: 6mph
Humidity: 93%   Direction: 180°S
Pressure: 29.78"   Gusts: NA
Location:  47.4036°N, 122.309°W
Report Text: KSEA 310553Z 18005KT 10SM -RA OVC036 12/11 A2978 RMK AO2 RAB39 SLP090 P0001 60032 T01220111 10139 20122 58003
Loading
Personal Weather Stations






























Interactive Weather Map
Tropical Storm Tracking
New forecast layout! Learn more

10-Day Weather Forecast

Advertisements
Track Severe Weather on mobile